sensor_id;sensor_type;location;lat;lon;timestamp;temperature;humidity
16846;DHT22;8539;53.188;8.696;2023-02-15T00:00:19;2.50;99.90
16846;DHT22;8539;53.188;8.696;2023-02-15T00:02:48;2.50;99.90
16846;DHT22;8539;53.188;8.696;2023-02-15T00:05:14;2.50;99.90
16846;DHT22;8539;53.188;8.696;2023-02-15T00:07:42;2.50;99.90
16846;DHT22;8539;53.188;8.696;2023-02-15T00:10:08;2.50;99.90
16846;DHT22;8539;53.188;8.696;2023-02-15T00:12:36;2.40;99.90
16846;DHT22;8539;53.188;8.696;2023-02-15T00:15:03;2.30;99.90
16846;DHT22;8539;53.188;8.696;2023-02-15T00:17:29;2.30;99.90
16846;DHT22;8539;53.188;8.696;2023-02-15T00:19:55;2.30;99.90
16846;DHT22;8539;53.188;8.696;2023-02-15T00:22:21;2.30;99.90
16846;DHT22;8539;53.188;8.696;2023-02-15T00:24:47;2.30;99.90
16846;DHT22;8539;53.188;8.696;2023-02-15T00:27:13;2.30;99.90
16846;DHT22;8539;53.188;8.696;2023-02-15T00:29:39;2.40;99.90
16846;DHT22;8539;53.188;8.696;2023-02-15T00:32:05;2.30;99.90
16846;DHT22;8539;53.188;8.696;2023-02-15T00:34:32;2.20;99.90
16846;DHT22;8539;53.188;8.696;2023-02-15T00:36:58;2.10;99.90
16846;DHT22;8539;53.188;8.696;2023-02-15T00:39:24;2.00;99.90
16846;DHT22;8539;53.188;8.696;2023-02-15T00:41:50;2.00;99.90
16846;DHT22;8539;53.188;8.696;2023-02-15T00:44:16;2.00;99.90
16846;DHT22;8539;53.188;8.696;2023-02-15T00:46:42;1.90;99.90
16846;DHT22;8539;53.188;8.696;2023-02-15T00:49:09;1.80;99.90
16846;DHT22;8539;53.188;8.696;2023-02-15T00:51:35;1.80;99.90
16846;DHT22;8539;53.188;8.696;2023-02-15T00:54:01;1.80;99.90
16846;DHT22;8539;53.188;8.696;2023-02-15T00:56:27;1.70;99.90
16846;DHT22;8539;53.188;8.696;2023-02-15T00:58:54;1.80;99.90
16846;DHT22;8539;53.188;8.696;2023-02-15T01:01:21;1.80;99.90
16846;DHT22;8539;53.188;8.696;2023-02-15T01:03:48;1.70;99.90
16846;DHT22;8539;53.188;8.696;2023-02-15T01:06:15;1.70;99.90
16846;DHT22;8539;53.188;8.696;2023-02-15T01:08:42;1.70;99.90
16846;DHT22;8539;53.188;8.696;2023-02-15T01:11:11;1.70;99.90
16846;DHT22;8539;53.188;8.696;2023-02-15T01:13:38;1.70;99.90
16846;DHT22;8539;53.188;8.696;2023-02-15T01:16:06;1.70;99.90
16846;DHT22;8539;53.188;8.696;2023-02-15T01:18:32;1.60;99.90
16846;DHT22;8539;53.188;8.696;2023-02-15T01:20:59;1.60;99.90
16846;DHT22;8539;53.188;8.696;2023-02-15T01:23:25;1.60;99.90
16846;DHT22;8539;53.188;8.696;2023-02-15T01:25:51;1.50;99.90
16846;DHT22;8539;53.188;8.696;2023-02-15T01:28:17;1.50;99.90
16846;DHT22;8539;53.188;8.696;2023-02-15T01:30:43;1.50;99.90
16846;DHT22;8539;53.188;8.696;2023-02-15T01:33:14;1.50;99.90
16846;DHT22;8539;53.188;8.696;2023-02-15T01:35:47;1.30;99.90
16846;DHT22;8539;53.188;8.696;2023-02-15T01:38:13;1.20;99.90
16846;DHT22;8539;53.188;8.696;2023-02-15T01:40:40;1.20;99.90
16846;DHT22;8539;53.188;8.696;2023-02-15T01:43:10;1.20;99.90
16846;DHT22;8539;53.188;8.696;2023-02-15T01:45:37;1.30;99.90
16846;DHT22;8539;53.188;8.696;2023-02-15T01:50:44;1.20;99.90
16846;DHT22;8539;53.188;8.696;2023-02-15T01:53:21;1.20;99.90
16846;DHT22;8539;53.188;8.696;2023-02-15T01:58:18;1.30;99.90
16846;DHT22;8539;53.188;8.696;2023-02-15T02:00:45;1.30;99.90
16846;DHT22;8539;53.188;8.696;2023-02-15T02:03:27;1.30;99.90
16846;DHT22;8539;53.188;8.696;2023-02-15T02:05:56;1.30;99.90
16846;DHT22;8539;53.188;8.696;2023-02-15T02:08:23;1.20;99.90
16846;DHT22;8539;53.188;8.696;2023-02-15T02:10:53;1.20;99.90
16846;DHT22;8539;53.188;8.696;2023-02-15T02:13:24;1.10;99.90
16846;DHT22;8539;53.188;8.696;2023-02-15T02:16:00;1.60;99.90
16846;DHT22;8539;53.188;8.696;2023-02-15T02:26:53;0.90;99.90
16846;DHT22;8539;53.188;8.696;2023-02-15T02:29:40;0.80;99.90
16846;DHT22;8539;53.188;8.696;2023-02-15T02:32:30;0.80;99.90
16846;DHT22;8539;53.188;8.696;2023-02-15T02:35:11;0.70;99.90
16846;DHT22;8539;53.188;8.696;2023-02-15T02:37:51;0.60;99.90
16846;DHT22;8539;53.188;8.696;2023-02-15T02:43:25;0.30;99.90
16846;DHT22;8539;53.188;8.696;2023-02-15T02:46:06;0.20;99.90
16846;DHT22;8539;53.188;8.696;2023-02-15T02:48:36;0.20;99.90
16846;DHT22;8539;53.188;8.696;2023-02-15T02:51:03;0.30;99.90
16846;DHT22;8539;53.188;8.696;2023-02-15T02:53:30;0.10;99.90
16846;DHT22;8539;53.188;8.696;2023-02-15T02:56:02;0.20;99.90
16846;DHT22;8539;53.188;8.696;2023-02-15T02:58:41;0.10;99.90
16846;DHT22;8539;53.188;8.696;2023-02-15T03:01:15;0.10;99.90
16846;DHT22;8539;53.188;8.696;2023-02-15T03:06:21;0.20;99.90
16846;DHT22;8539;53.188;8.696;2023-02-15T03:08:56;0.20;99.90
16846;DHT22;8539;53.188;8.696;2023-02-15T03:11:23;0.10;99.90
16846;DHT22;8539;53.188;8.696;2023-02-15T03:13:50;0.20;99.90
16846;DHT22;8539;53.188;8.696;2023-02-15T03:16:18;0.60;99.90
16846;DHT22;8539;53.188;8.696;2023-02-15T03:18:58;0.20;99.90
16846;DHT22;8539;53.188;8.696;2023-02-15T03:21:31;0.20;99.90
16846;DHT22;8539;53.188;8.696;2023-02-15T03:24:09;0.20;99.90
16846;DHT22;8539;53.188;8.696;2023-02-15T03:26:38;0.20;99.90
16846;DHT22;8539;53.188;8.696;2023-02-15T03:29:05;0.20;99.90
16846;DHT22;8539;53.188;8.696;2023-02-15T03:31:37;0.20;99.90
16846;DHT22;8539;53.188;8.696;2023-02-15T03:34:08;0.20;99.90
16846;DHT22;8539;53.188;8.696;2023-02-15T03:36:57;0.20;99.90
16846;DHT22;8539;53.188;8.696;2023-02-15T03:39:51;0.20;99.90
16846;DHT22;8539;53.188;8.696;2023-02-15T03:42:26;0.20;99.90
16846;DHT22;8539;53.188;8.696;2023-02-15T03:45:09;0.10;99.90
16846;DHT22;8539;53.188;8.696;2023-02-15T03:47:40;0.10;99.90
16846;DHT22;8539;53.188;8.696;2023-02-15T03:50:15;0.10;99.90
16846;DHT22;8539;53.188;8.696;2023-02-15T03:53:03;0.00;99.90
16846;DHT22;8539;53.188;8.696;2023-02-15T03:55:31;0.00;99.90
16846;DHT22;8539;53.188;8.696;2023-02-15T03:57:57;0.00;99.90
16846;DHT22;8539;53.188;8.696;2023-02-15T04:00:49;0.00;99.90
16846;DHT22;8539;53.188;8.696;2023-02-15T04:06:02;0.00;99.90
16846;DHT22;8539;53.188;8.696;2023-02-15T04:08:29;0.00;99.90
16846;DHT22;8539;53.188;8.696;2023-02-15T04:11:14;0.00;99.90
16846;DHT22;8539;53.188;8.696;2023-02-15T04:13:41;0.00;99.90
16846;DHT22;8539;53.188;8.696;2023-02-15T04:16:08;0.00;99.90
16846;DHT22;8539;53.188;8.696;2023-02-15T04:18:39;0.00;99.90
16846;DHT22;8539;53.188;8.696;2023-02-15T04:21:26;-0.10;99.90
16846;DHT22;8539;53.188;8.696;2023-02-15T04:24:11;-0.10;99.90
16846;DHT22;8539;53.188;8.696;2023-02-15T04:26:56;0.10;99.90
16846;DHT22;8539;53.188;8.696;2023-02-15T04:29:23;-0.10;99.90
16846;DHT22;8539;53.188;8.696;2023-02-15T04:31:50;-0.20;99.90
16846;DHT22;8539;53.188;8.696;2023-02-15T04:34:16;-0.10;99.90
16846;DHT22;8539;53.188;8.696;2023-02-15T04:36:43;-0.10;99.90
16846;DHT22;8539;53.188;8.696;2023-02-15T04:39:09;-0.20;99.90
16846;DHT22;8539;53.188;8.696;2023-02-15T04:41:38;-0.20;99.90
16846;DHT22;8539;53.188;8.696;2023-02-15T04:44:04;-0.20;99.90
16846;DHT22;8539;53.188;8.696;2023-02-15T04:46:32;-0.20;99.90
16846;DHT22;8539;53.188;8.696;2023-02-15T04:49:00;-0.20;99.90
16846;DHT22;8539;53.188;8.696;2023-02-15T04:51:26;-0.20;99.90
16846;DHT22;8539;53.188;8.696;2023-02-15T04:53:52;-0.20;99.90
16846;DHT22;8539;53.188;8.696;2023-02-15T04:56:19;-0.10;99.90
16846;DHT22;8539;53.188;8.696;2023-02-15T04:58:46;-0.20;99.90
16846;DHT22;8539;53.188;8.696;2023-02-15T05:01:12;-0.20;99.90
16846;DHT22;8539;53.188;8.696;2023-02-15T05:03:39;-0.20;99.90
16846;DHT22;8539;53.188;8.696;2023-02-15T05:06:05;-0.20;99.90
16846;DHT22;8539;53.188;8.696;2023-02-15T05:08:31;-0.20;99.90
16846;DHT22;8539;53.188;8.696;2023-02-15T05:10:58;-0.20;99.90
16846;DHT22;8539;53.188;8.696;2023-02-15T05:13:24;-0.20;99.90
16846;DHT22;8539;53.188;8.696;2023-02-15T05:15:51;-0.20;99.90
16846;DHT22;8539;53.188;8.696;2023-02-15T05:18:19;-0.20;99.90
16846;DHT22;8539;53.188;8.696;2023-02-15T05:20:46;-0.30;99.90
16846;DHT22;8539;53.188;8.696;2023-02-15T05:23:12;-0.30;99.90
16846;DHT22;8539;53.188;8.696;2023-02-15T05:25:38;-0.30;99.90
16846;DHT22;8539;53.188;8.696;2023-02-15T05:28:25;-0.30;99.90
16846;DHT22;8539;53.188;8.696;2023-02-15T05:33:31;-0.40;99.90
16846;DHT22;8539;53.188;8.696;2023-02-15T05:35:57;-0.40;99.90
16846;DHT22;8539;53.188;8.696;2023-02-15T05:38:24;-0.20;99.90
16846;DHT22;8539;53.188;8.696;2023-02-15T05:40:51;-0.40;99.90
16846;DHT22;8539;53.188;8.696;2023-02-15T05:43:18;-0.40;99.90
16846;DHT22;8539;53.188;8.696;2023-02-15T05:45:49;-0.40;99.90
16846;DHT22;8539;53.188;8.696;2023-02-15T05:48:17;-0.40;99.90
16846;DHT22;8539;53.188;8.696;2023-02-15T05:50:43;-0.40;99.90
16846;DHT22;8539;53.188;8.696;2023-02-15T05:53:10;-0.40;99.90
16846;DHT22;8539;53.188;8.696;2023-02-15T05:55:40;-0.40;99.90
16846;DHT22;8539;53.188;8.696;2023-02-15T05:58:07;-0.40;99.90
16846;DHT22;8539;53.188;8.696;2023-02-15T06:00:34;-0.40;99.90
16846;DHT22;8539;53.188;8.696;2023-02-15T06:03:00;-0.50;99.90
16846;DHT22;8539;53.188;8.696;2023-02-15T06:05:26;-0.50;99.90
16846;DHT22;8539;53.188;8.696;2023-02-15T06:07:52;-0.50;99.90
16846;DHT22;8539;53.188;8.696;2023-02-15T06:10:18;-0.50;99.90
16846;DHT22;8539;53.188;8.696;2023-02-15T06:12:45;-0.50;99.90
16846;DHT22;8539;53.188;8.696;2023-02-15T06:15:11;-0.50;99.90
16846;DHT22;8539;53.188;8.696;2023-02-15T06:17:41;-0.30;99.90
16846;DHT22;8539;53.188;8.696;2023-02-15T06:20:08;-0.60;99.90
16846;DHT22;8539;53.188;8.696;2023-02-15T06:22:35;-0.60;99.90
16846;DHT22;8539;53.188;8.696;2023-02-15T06:25:01;-0.60;99.90
16846;DHT22;8539;53.188;8.696;2023-02-15T06:27:27;-0.50;99.90
16846;DHT22;8539;53.188;8.696;2023-02-15T06:29:53;-0.60;99.90
16846;DHT22;8539;53.188;8.696;2023-02-15T06:32:20;-0.70;99.90
16846;DHT22;8539;53.188;8.696;2023-02-15T06:34:46;-0.70;99.90
16846;DHT22;8539;53.188;8.696;2023-02-15T06:37:12;-0.70;99.90
16846;DHT22;8539;53.188;8.696;2023-02-15T06:39:38;-0.40;99.90
16846;DHT22;8539;53.188;8.696;2023-02-15T06:42:04;-0.80;99.90
16846;DHT22;8539;53.188;8.696;2023-02-15T06:44:30;-0.80;99.90
16846;DHT22;8539;53.188;8.696;2023-02-15T06:46:57;-0.80;99.90
16846;DHT22;8539;53.188;8.696;2023-02-15T06:49:23;-0.80;99.90
16846;DHT22;8539;53.188;8.696;2023-02-15T06:51:49;-0.80;99.90
16846;DHT22;8539;53.188;8.696;2023-02-15T06:54:17;-0.70;99.90
16846;DHT22;8539;53.188;8.696;2023-02-15T06:56:45;-0.70;99.90
16846;DHT22;8539;53.188;8.696;2023-02-15T06:59:11;-0.80;99.90
16846;DHT22;8539;53.188;8.696;2023-02-15T07:01:37;-0.70;99.90
16846;DHT22;8539;53.188;8.696;2023-02-15T07:04:03;-0.80;99.90
16846;DHT22;8539;53.188;8.696;2023-02-15T07:06:33;-0.80;99.90
16846;DHT22;8539;53.188;8.696;2023-02-15T07:08:59;-0.70;99.90
16846;DHT22;8539;53.188;8.696;2023-02-15T07:11:26;-0.70;99.90
16846;DHT22;8539;53.188;8.696;2023-02-15T07:14:10;-0.70;99.90
16846;DHT22;8539;53.188;8.696;2023-02-15T07:16:36;-0.70;99.90
16846;DHT22;8539;53.188;8.696;2023-02-15T07:19:02;-0.60;99.90
16846;DHT22;8539;53.188;8.696;2023-02-15T07:21:29;-0.50;99.90
16846;DHT22;8539;53.188;8.696;2023-02-15T07:23:58;-0.60;99.90
16846;DHT22;8539;53.188;8.696;2023-02-15T07:26:25;-0.60;99.90
16846;DHT22;8539;53.188;8.696;2023-02-15T07:28:51;-0.60;99.90
16846;DHT22;8539;53.188;8.696;2023-02-15T07:31:17;-0.60;99.90
16846;DHT22;8539;53.188;8.696;2023-02-15T07:33:43;-0.60;99.90
16846;DHT22;8539;53.188;8.696;2023-02-15T07:36:10;-0.50;99.90
16846;DHT22;8539;53.188;8.696;2023-02-15T07:38:40;-0.50;99.90
16846;DHT22;8539;53.188;8.696;2023-02-15T07:41:09;-0.50;99.90
16846;DHT22;8539;53.188;8.696;2023-02-15T07:43:38;-0.50;99.90
16846;DHT22;8539;53.188;8.696;2023-02-15T07:46:07;-0.50;99.90
16846;DHT22;8539;53.188;8.696;2023-02-15T07:48:34;-0.40;99.90
16846;DHT22;8539;53.188;8.696;2023-02-15T07:51:01;-0.40;99.90
16846;DHT22;8539;53.188;8.696;2023-02-15T07:53:28;-0.40;99.90
16846;DHT22;8539;53.188;8.696;2023-02-15T07:55:54;-0.50;99.90
16846;DHT22;8539;53.188;8.696;2023-02-15T07:58:23;-0.20;99.90
16846;DHT22;8539;53.188;8.696;2023-02-15T08:01:13;-0.20;99.90
16846;DHT22;8539;53.188;8.696;2023-02-15T08:03:46;-0.20;99.90
16846;DHT22;8539;53.188;8.696;2023-02-15T08:06:12;-0.10;99.90
16846;DHT22;8539;53.188;8.696;2023-02-15T08:08:40;0.00;99.90
16846;DHT22;8539;53.188;8.696;2023-02-15T08:13:55;0.20;99.90
16846;DHT22;8539;53.188;8.696;2023-02-15T08:16:30;0.30;99.90
16846;DHT22;8539;53.188;8.696;2023-02-15T08:18:58;0.40;99.90
16846;DHT22;8539;53.188;8.696;2023-02-15T08:21:26;0.50;99.90
16846;DHT22;8539;53.188;8.696;2023-02-15T08:23:53;0.60;99.90
16846;DHT22;8539;53.188;8.696;2023-02-15T08:26:20;0.60;99.90
16846;DHT22;8539;53.188;8.696;2023-02-15T08:28:48;0.70;99.90
16846;DHT22;8539;53.188;8.696;2023-02-15T08:31:16;0.80;99.90
16846;DHT22;8539;53.188;8.696;2023-02-15T08:33:44;0.90;99.90
16846;DHT22;8539;53.188;8.696;2023-02-15T08:36:15;1.00;99.90
16846;DHT22;8539;53.188;8.696;2023-02-15T08:38:42;1.10;99.90
16846;DHT22;8539;53.188;8.696;2023-02-15T08:41:17;1.20;99.90
16846;DHT22;8539;53.188;8.696;2023-02-15T08:43:46;1.40;99.90
16846;DHT22;8539;53.188;8.696;2023-02-15T08:46:14;1.50;99.90
16846;DHT22;8539;53.188;8.696;2023-02-15T08:48:41;1.60;99.90
16846;DHT22;8539;53.188;8.696;2023-02-15T08:51:13;1.70;99.90
16846;DHT22;8539;53.188;8.696;2023-02-15T08:53:40;1.80;99.90
16846;DHT22;8539;53.188;8.696;2023-02-15T08:56:07;1.90;99.90
16846;DHT22;8539;53.188;8.696;2023-02-15T08:58:34;2.00;99.90
16846;DHT22;8539;53.188;8.696;2023-02-15T09:01:00;2.10;99.90
16846;DHT22;8539;53.188;8.696;2023-02-15T09:03:28;2.20;99.90
16846;DHT22;8539;53.188;8.696;2023-02-15T09:05:59;2.30;99.90
16846;DHT22;8539;53.188;8.696;2023-02-15T09:08:27;2.40;99.90
16846;DHT22;8539;53.188;8.696;2023-02-15T09:10:54;2.70;99.90
16846;DHT22;8539;53.188;8.696;2023-02-15T09:13:20;2.70;99.90
16846;DHT22;8539;53.188;8.696;2023-02-15T09:15:46;2.80;99.90
16846;DHT22;8539;53.188;8.696;2023-02-15T09:18:13;2.90;99.90
16846;DHT22;8539;53.188;8.696;2023-02-15T09:20:44;3.10;99.90
16846;DHT22;8539;53.188;8.696;2023-02-15T09:23:10;3.30;99.90
16846;DHT22;8539;53.188;8.696;2023-02-15T09:25:36;3.30;99.90
16846;DHT22;8539;53.188;8.696;2023-02-15T09:28:02;3.50;99.90
16846;DHT22;8539;53.188;8.696;2023-02-15T09:30:28;3.60;99.90
16846;DHT22;8539;53.188;8.696;2023-02-15T09:32:54;3.90;99.90
16846;DHT22;8539;53.188;8.696;2023-02-15T09:35:20;3.80;99.90
16846;DHT22;8539;53.188;8.696;2023-02-15T09:37:46;3.80;99.90
16846;DHT22;8539;53.188;8.696;2023-02-15T09:40:15;4.00;99.90
16846;DHT22;8539;53.188;8.696;2023-02-15T09:45:29;4.30;99.90
16846;DHT22;8539;53.188;8.696;2023-02-15T09:48:29;4.70;99.90
16846;DHT22;8539;53.188;8.696;2023-02-15T09:54:21;5.30;99.90
16846;DHT22;8539;53.188;8.696;2023-02-15T09:56:59;5.80;99.90
16846;DHT22;8539;53.188;8.696;2023-02-15T10:02:16;7.00;99.90
16846;DHT22;8539;53.188;8.696;2023-02-15T10:05:19;7.50;99.90
16846;DHT22;8539;53.188;8.696;2023-02-15T10:11:14;8.90;99.90
16846;DHT22;8539;53.188;8.696;2023-02-15T10:22:30;10.80;99.90
16846;DHT22;8539;53.188;8.696;2023-02-15T10:28:18;11.50;99.90
16846;DHT22;8539;53.188;8.696;2023-02-15T10:30:48;11.80;99.90
16846;DHT22;8539;53.188;8.696;2023-02-15T10:42:23;11.80;99.90
16846;DHT22;8539;53.188;8.696;2023-02-15T10:56:20;11.50;99.90
16846;DHT22;8539;53.188;8.696;2023-02-15T10:58:55;11.50;99.90
16846;DHT22;8539;53.188;8.696;2023-02-15T11:02:13;11.50;99.90
16846;DHT22;8539;53.188;8.696;2023-02-15T11:07:33;11.30;99.90
16846;DHT22;8539;53.188;8.696;2023-02-15T11:12:41;11.10;99.90
16846;DHT22;8539;53.188;8.696;2023-02-15T11:15:30;11.10;99.90
16846;DHT22;8539;53.188;8.696;2023-02-15T11:18:39;11.20;99.90
16846;DHT22;8539;53.188;8.696;2023-02-15T11:21:02;11.30;99.90
16846;DHT22;8539;53.188;8.696;2023-02-15T11:23:30;11.40;99.90
16846;DHT22;8539;53.188;8.696;2023-02-15T11:26:00;11.30;99.90
16846;DHT22;8539;53.188;8.696;2023-02-15T11:28:38;11.30;99.90
16846;DHT22;8539;53.188;8.696;2023-02-15T11:31:20;11.50;99.90
16846;DHT22;8539;53.188;8.696;2023-02-15T11:33:59;11.60;99.90
16846;DHT22;8539;53.188;8.696;2023-02-15T11:36:31;11.60;99.90
16846;DHT22;8539;53.188;8.696;2023-02-15T11:39:05;11.50;99.90
16846;DHT22;8539;53.188;8.696;2023-02-15T11:41:38;11.60;99.90
16846;DHT22;8539;53.188;8.696;2023-02-15T11:44:18;11.70;99.90
16846;DHT22;8539;53.188;8.696;2023-02-15T11:46:46;11.80;99.90
16846;DHT22;8539;53.188;8.696;2023-02-15T11:51:51;12.20;99.90
16846;DHT22;8539;53.188;8.696;2023-02-15T11:54:21;12.40;99.90
16846;DHT22;8539;53.188;8.696;2023-02-15T11:56:48;12.60;99.90
16846;DHT22;8539;53.188;8.696;2023-02-15T11:59:21;12.90;99.90
16846;DHT22;8539;53.188;8.696;2023-02-15T12:01:50;13.20;99.90
16846;DHT22;8539;53.188;8.696;2023-02-15T12:04:56;13.30;99.90
16846;DHT22;8539;53.188;8.696;2023-02-15T12:07:28;13.40;99.90
16846;DHT22;8539;53.188;8.696;2023-02-15T12:10:22;13.50;99.90
16846;DHT22;8539;53.188;8.696;2023-02-15T12:12:46;13.50;99.90
16846;DHT22;8539;53.188;8.696;2023-02-15T12:15:13;13.40;99.90
16846;DHT22;8539;53.188;8.696;2023-02-15T12:17:48;13.20;99.90
16846;DHT22;8539;53.188;8.696;2023-02-15T12:22:53;13.10;99.90
16846;DHT22;8539;53.188;8.696;2023-02-15T12:25:40;13.10;99.90
16846;DHT22;8539;53.188;8.696;2023-02-15T12:28:38;13.10;99.90
16846;DHT22;8539;53.188;8.696;2023-02-15T12:31:20;12.90;99.90
16846;DHT22;8539;53.188;8.696;2023-02-15T12:33:52;12.70;99.90
16846;DHT22;8539;53.188;8.696;2023-02-15T12:36:29;12.50;99.90
16846;DHT22;8539;53.188;8.696;2023-02-15T12:39:17;12.30;99.90
16846;DHT22;8539;53.188;8.696;2023-02-15T12:44:29;11.80;99.90
16846;DHT22;8539;53.188;8.696;2023-02-15T12:49:22;11.70;99.90
16846;DHT22;8539;53.188;8.696;2023-02-15T12:51:57;11.80;99.90
16846;DHT22;8539;53.188;8.696;2023-02-15T12:54:39;11.90;99.90
16846;DHT22;8539;53.188;8.696;2023-02-15T13:02:53;12.40;99.90
16846;DHT22;8539;53.188;8.696;2023-02-15T13:05:36;12.50;99.90
16846;DHT22;8539;53.188;8.696;2023-02-15T13:08:15;12.50;99.90
16846;DHT22;8539;53.188;8.696;2023-02-15T13:10:59;12.50;99.90
16846;DHT22;8539;53.188;8.696;2023-02-15T13:13:36;12.50;99.90
16846;DHT22;8539;53.188;8.696;2023-02-15T13:16:05;12.50;99.90
16846;DHT22;8539;53.188;8.696;2023-02-15T13:18:45;12.40;99.90
16846;DHT22;8539;53.188;8.696;2023-02-15T13:21:21;12.40;99.90
16846;DHT22;8539;53.188;8.696;2023-02-15T13:23:53;12.50;99.90
16846;DHT22;8539;53.188;8.696;2023-02-15T13:26:25;12.60;99.90
16846;DHT22;8539;53.188;8.696;2023-02-15T13:28:55;12.70;99.90
16846;DHT22;8539;53.188;8.696;2023-02-15T13:31:28;12.80;99.90
16846;DHT22;8539;53.188;8.696;2023-02-15T14:01:58;13.30;99.90
16846;DHT22;8539;53.188;8.696;2023-02-15T14:04:34;13.60;99.90
16846;DHT22;8539;53.188;8.696;2023-02-15T14:07:43;13.70;99.90
16846;DHT22;8539;53.188;8.696;2023-02-15T14:10:31;13.80;99.90
16846;DHT22;8539;53.188;8.696;2023-02-15T14:19:12;14.00;99.90
16846;DHT22;8539;53.188;8.696;2023-02-15T14:22:12;13.90;99.90
16846;DHT22;8539;53.188;8.696;2023-02-15T14:28:03;13.70;99.90
16846;DHT22;8539;53.188;8.696;2023-02-15T14:30:50;13.70;99.90
16846;DHT22;8539;53.188;8.696;2023-02-15T14:33:38;13.60;99.90
16846;DHT22;8539;53.188;8.696;2023-02-15T14:36:08;13.60;99.90
16846;DHT22;8539;53.188;8.696;2023-02-15T14:39:02;13.50;99.90
16846;DHT22;8539;53.188;8.696;2023-02-15T14:41:49;13.30;99.90
16846;DHT22;8539;53.188;8.696;2023-02-15T14:47:39;12.90;99.90
16846;DHT22;8539;53.188;8.696;2023-02-15T14:49:46;12.70;99.90
16846;DHT22;8539;53.188;8.696;2023-02-15T14:52:12;12.50;99.90
16846;DHT22;8539;53.188;8.696;2023-02-15T14:59:55;12.00;99.90
16846;DHT22;8539;53.188;8.696;2023-02-15T15:02:49;11.80;99.90
16846;DHT22;8539;53.188;8.696;2023-02-15T15:05:27;11.60;99.90
16846;DHT22;8539;53.188;8.696;2023-02-15T15:07:58;11.50;99.90
16846;DHT22;8539;53.188;8.696;2023-02-15T15:12:55;11.20;99.90
16846;DHT22;8539;53.188;8.696;2023-02-15T15:18:42;11.10;99.90
16846;DHT22;8539;53.188;8.696;2023-02-15T15:21:09;11.00;99.90
16846;DHT22;8539;53.188;8.696;2023-02-15T15:23:40;11.00;99.90
16846;DHT22;8539;53.188;8.696;2023-02-15T15:26:28;10.90;99.90
16846;DHT22;8539;53.188;8.696;2023-02-15T15:28:58;10.80;99.90
16846;DHT22;8539;53.188;8.696;2023-02-15T15:34:18;10.70;99.90
16846;DHT22;8539;53.188;8.696;2023-02-15T15:50:26;10.20;99.90
16846;DHT22;8539;53.188;8.696;2023-02-15T15:52:57;10.10;99.90
16846;DHT22;8539;53.188;8.696;2023-02-15T15:55:32;10.00;99.90
16846;DHT22;8539;53.188;8.696;2023-02-15T15:58:05;9.90;99.90
16846;DHT22;8539;53.188;8.696;2023-02-15T16:01:08;9.80;99.90
16846;DHT22;8539;53.188;8.696;2023-02-15T16:03:37;9.70;99.90
16846;DHT22;8539;53.188;8.696;2023-02-15T16:06:03;9.60;99.90
16846;DHT22;8539;53.188;8.696;2023-02-15T16:08:35;9.50;99.90
16846;DHT22;8539;53.188;8.696;2023-02-15T16:11:10;9.40;99.90
16846;DHT22;8539;53.188;8.696;2023-02-15T16:13:42;9.30;99.90
16846;DHT22;8539;53.188;8.696;2023-02-15T16:16:12;9.20;99.90
16846;DHT22;8539;53.188;8.696;2023-02-15T16:18:38;9.10;99.90
16846;DHT22;8539;53.188;8.696;2023-02-15T16:21:18;9.00;99.90
16846;DHT22;8539;53.188;8.696;2023-02-15T16:29:25;8.90;99.90
16846;DHT22;8539;53.188;8.696;2023-02-15T16:34:26;8.80;99.90
16846;DHT22;8539;53.188;8.696;2023-02-15T16:37:17;8.60;99.90
16846;DHT22;8539;53.188;8.696;2023-02-15T16:39:45;8.50;99.90
16846;DHT22;8539;53.188;8.696;2023-02-15T16:42:15;8.50;99.90
16846;DHT22;8539;53.188;8.696;2023-02-15T16:44:48;8.40;99.90
16846;DHT22;8539;53.188;8.696;2023-02-15T16:47:23;8.30;99.90
16846;DHT22;8539;53.188;8.696;2023-02-15T16:49:52;8.20;99.90
16846;DHT22;8539;53.188;8.696;2023-02-15T16:52:22;8.00;99.90
16846;DHT22;8539;53.188;8.696;2023-02-15T16:54:57;7.90;99.90
16846;DHT22;8539;53.188;8.696;2023-02-15T16:57:27;7.90;99.90
16846;DHT22;8539;53.188;8.696;2023-02-15T16:59:59;7.80;99.90
16846;DHT22;8539;53.188;8.696;2023-02-15T17:02:31;7.70;99.90
16846;DHT22;8539;53.188;8.696;2023-02-15T17:07:39;7.50;99.90
16846;DHT22;8539;53.188;8.696;2023-02-15T17:10:27;7.40;99.90
16846;DHT22;8539;53.188;8.696;2023-02-15T17:12:56;7.40;99.90
16846;DHT22;8539;53.188;8.696;2023-02-15T17:15:34;7.30;99.90
16846;DHT22;8539;53.188;8.696;2023-02-15T17:18:16;7.30;99.90
16846;DHT22;8539;53.188;8.696;2023-02-15T17:20:45;7.30;99.90
16846;DHT22;8539;53.188;8.696;2023-02-15T17:23:41;7.30;99.90
16846;DHT22;8539;53.188;8.696;2023-02-15T17:26:37;7.20;99.90
16846;DHT22;8539;53.188;8.696;2023-02-15T17:31:58;6.70;99.90
16846;DHT22;8539;53.188;8.696;2023-02-15T17:37:47;7.00;99.90
16846;DHT22;8539;53.188;8.696;2023-02-15T17:42:39;6.90;99.90
16846;DHT22;8539;53.188;8.696;2023-02-15T17:45:06;6.90;99.90
16846;DHT22;8539;53.188;8.696;2023-02-15T17:47:32;6.90;99.90
16846;DHT22;8539;53.188;8.696;2023-02-15T17:50:00;6.90;99.90
16846;DHT22;8539;53.188;8.696;2023-02-15T17:52:28;6.80;99.90
16846;DHT22;8539;53.188;8.696;2023-02-15T17:54:55;6.80;99.90
16846;DHT22;8539;53.188;8.696;2023-02-15T17:57:39;6.80;99.90
16846;DHT22;8539;53.188;8.696;2023-02-15T18:00:07;6.70;99.90
16846;DHT22;8539;53.188;8.696;2023-02-15T18:02:52;6.70;99.90
16846;DHT22;8539;53.188;8.696;2023-02-15T18:05:37;6.70;99.90
16846;DHT22;8539;53.188;8.696;2023-02-15T18:08:26;6.60;99.90
16846;DHT22;8539;53.188;8.696;2023-02-15T18:11:11;6.60;99.90
16846;DHT22;8539;53.188;8.696;2023-02-15T18:13:56;6.70;99.90
16846;DHT22;8539;53.188;8.696;2023-02-15T18:16:29;6.40;99.90
16846;DHT22;8539;53.188;8.696;2023-02-15T18:18:56;6.40;99.90
16846;DHT22;8539;53.188;8.696;2023-02-15T18:21:23;6.40;99.90
16846;DHT22;8539;53.188;8.696;2023-02-15T18:23:49;6.30;99.90
16846;DHT22;8539;53.188;8.696;2023-02-15T18:26:22;6.30;99.90
16846;DHT22;8539;53.188;8.696;2023-02-15T18:28:49;6.30;99.90
16846;DHT22;8539;53.188;8.696;2023-02-15T18:31:16;6.20;99.90
16846;DHT22;8539;53.188;8.696;2023-02-15T18:33:45;6.20;99.90
16846;DHT22;8539;53.188;8.696;2023-02-15T18:36:35;6.20;99.90
16846;DHT22;8539;53.188;8.696;2023-02-15T18:39:19;6.10;99.90
16846;DHT22;8539;53.188;8.696;2023-02-15T18:41:48;6.00;99.90
16846;DHT22;8539;53.188;8.696;2023-02-15T18:44:14;5.90;99.90
16846;DHT22;8539;53.188;8.696;2023-02-15T18:46:40;5.80;99.90
16846;DHT22;8539;53.188;8.696;2023-02-15T18:49:06;5.80;99.90
16846;DHT22;8539;53.188;8.696;2023-02-15T18:51:32;5.60;99.90
16846;DHT22;8539;53.188;8.696;2023-02-15T18:54:10;5.60;99.90
16846;DHT22;8539;53.188;8.696;2023-02-15T18:56:37;5.50;99.90
16846;DHT22;8539;53.188;8.696;2023-02-15T18:59:04;5.40;99.90
16846;DHT22;8539;53.188;8.696;2023-02-15T19:01:31;5.40;99.90
16846;DHT22;8539;53.188;8.696;2023-02-15T19:03:57;5.20;99.90
16846;DHT22;8539;53.188;8.696;2023-02-15T19:06:23;5.10;99.90
16846;DHT22;8539;53.188;8.696;2023-02-15T19:08:51;5.10;99.90
16846;DHT22;8539;53.188;8.696;2023-02-15T19:11:22;5.00;99.90
16846;DHT22;8539;53.188;8.696;2023-02-15T19:13:50;4.90;99.90
16846;DHT22;8539;53.188;8.696;2023-02-15T19:16:32;4.80;99.90
16846;DHT22;8539;53.188;8.696;2023-02-15T19:18:58;4.70;99.90
16846;DHT22;8539;53.188;8.696;2023-02-15T19:21:26;4.60;99.90
16846;DHT22;8539;53.188;8.696;2023-02-15T19:23:59;4.50;99.90